Time;durP1;ratioP1;P1;durP2;ratioP2;P2;SDS_P1;SDS_P2;PMS_P1;PMS_P2;Temp;Humidity;BMP_temperature;BMP_pressure;BME280_temperature;BME280_humidity;BME280_pressure;Samples;Min_cycle;Max_cycle;Signal;HPM_P1;HPM_P2
2024/02/03 00:00:43;;;;;;;6.10;4.10;;;5.80;99.90;;;;;;4993034;28;20121;-87
2024/02/03 00:03:09;;;;;;;7.95;5.25;;;5.80;99.90;;;;;;5006129;28;20037;-85
2024/02/03 00:05:35;;;;;;;10.02;5.85;;;5.80;99.90;;;;;;5006779;28;20389;-86
2024/02/03 00:08:01;;;;;;;5.93;4.65;;;5.70;99.90;;;;;;5003070;28;20611;-86
2024/02/03 00:10:28;;;;;;;9.32;5.65;;;5.70;99.90;;;;;;4986149;28;20049;-86
2024/02/03 00:12:53;;;;;;;7.72;5.63;;;5.70;99.90;;;;;;4992944;28;20121;-86
2024/02/03 00:15:21;;;;;;;10.55;6.82;;;5.70;99.90;;;;;;5005733;28;20153;-87
2024/02/03 00:17:47;;;;;;;8.65;6.03;;;5.80;99.90;;;;;;5025092;28;20491;-87
2024/02/03 00:20:14;;;;;;;10.05;6.47;;;5.80;99.90;;;;;;5007590;28;20029;-86
2024/02/03 00:22:43;;;;;;;11.70;5.35;;;5.80;99.90;;;;;;5011156;28;20541;-86
2024/02/03 00:25:28;;;;;;;7.28;5.15;;;5.70;99.90;;;;;;5006145;28;20049;-85
2024/02/03 00:27:53;;;;;;;12.48;5.22;;;5.80;99.90;;;;;;4986736;28;20038;-85
2024/02/03 00:30:19;;;;;;;9.40;5.97;;;5.80;99.90;;;;;;5000738;28;20029;-86
2024/02/03 00:32:45;;;;;;;8.68;5.30;;;5.80;99.90;;;;;;5001096;28;20472;-86
2024/02/03 00:35:11;;;;;;;6.38;4.68;;;5.80;99.90;;;;;;4985886;28;20033;-86
2024/02/03 00:37:37;;;;;;;9.20;6.25;;;5.80;99.90;;;;;;5011181;28;20044;-86
2024/02/03 00:40:03;;;;;;;12.18;6.65;;;5.70;99.90;;;;;;5002894;28;20033;-86
2024/02/03 00:42:30;;;;;;;9.48;6.75;;;5.70;99.90;;;;;;5011463;28;20135;-86
2024/02/03 00:44:55;;;;;;;9.45;6.55;;;5.80;99.90;;;;;;4990717;28;20030;-86
2024/02/03 00:47:21;;;;;;;9.23;6.28;;;5.70;99.90;;;;;;5010791;28;20102;-86
2024/02/03 00:49:47;;;;;;;9.45;5.82;;;5.80;99.90;;;;;;4990981;28;20390;-86
2024/02/03 00:52:13;;;;;;;10.40;5.55;;;5.80;99.90;;;;;;4994674;28;20450;-86
2024/02/03 00:54:39;;;;;;;8.50;5.82;;;5.90;99.90;;;;;;5006185;28;20050;-86
2024/02/03 00:57:07;;;;;;;10.75;6.50;;;5.80;99.90;;;;;;4989399;28;20024;-86
2024/02/03 00:59:33;;;;;;;10.02;6.38;;;5.80;99.90;;;;;;5000183;28;20032;-86
2024/02/03 01:01:59;;;;;;;9.63;5.82;;;5.80;99.90;;;;;;4994297;28;20030;-86
2024/02/03 01:04:25;;;;;;;10.15;5.38;;;5.80;99.90;;;;;;5009324;28;20536;-86
2024/02/03 01:06:54;;;;;;;13.13;7.45;;;5.80;99.90;;;;;;4989963;28;20026;-86
2024/02/03 01:09:20;;;;;;;12.55;7.20;;;5.80;99.90;;;;;;5010519;28;20030;-86
2024/02/03 01:11:46;;;;;;;9.57;6.80;;;5.70;99.90;;;;;;4991830;28;20398;-86
2024/02/03 01:14:11;;;;;;;11.18;6.70;;;5.70;99.90;;;;;;5006616;28;20031;-86
2024/02/03 01:16:37;;;;;;;8.55;6.05;;;5.70;99.90;;;;;;4989865;28;20037;-86
2024/02/03 01:19:04;;;;;;;10.05;7.05;;;5.70;99.90;;;;;;5006761;28;20545;-86
2024/02/03 01:21:29;;;;;;;12.25;7.13;;;5.70;99.90;;;;;;5003810;28;20117;-86
2024/02/03 01:23:56;;;;;;;10.20;6.55;;;5.70;99.90;;;;;;4990665;28;20184;-86
2024/02/03 01:26:22;;;;;;;9.27;6.20;;;5.70;99.90;;;;;;5000013;28;20037;-86
2024/02/03 01:28:47;;;;;;;11.90;6.90;;;5.70;99.90;;;;;;5005582;28;20037;-86
2024/02/03 01:31:13;;;;;;;12.88;7.43;;;5.80;99.90;;;;;;4992560;28;20049;-87
2024/02/03 01:33:39;;;;;;;10.65;7.20;;;5.80;99.90;;;;;;4992967;28;20049;-86
2024/02/03 01:36:05;;;;;;;12.07;7.00;;;5.80;99.90;;;;;;5003928;28;20026;-86
2024/02/03 01:38:31;;;;;;;8.40;5.95;;;5.80;99.90;;;;;;4982183;28;20026;-86
2024/02/03 01:40:57;;;;;;;13.15;7.20;;;5.80;99.90;;;;;;5003804;28;20117;-87
2024/02/03 01:43:23;;;;;;;12.57;7.10;;;5.80;99.90;;;;;;4997370;28;20129;-86
2024/02/03 01:45:50;;;;;;;12.20;6.72;;;5.80;99.90;;;;;;5002976;28;20025;-86
2024/02/03 01:48:19;;;;;;;9.98;6.75;;;5.80;99.90;;;;;;5001735;28;20034;-86
2024/02/03 01:50:49;;;;;;;10.30;6.68;;;5.80;99.90;;;;;;4987478;28;20511;-87
2024/02/03 01:53:17;;;;;;;9.52;6.38;;;5.80;99.90;;;;;;5009588;28;20121;-86
2024/02/03 01:55:44;;;;;;;10.75;6.95;;;5.80;99.90;;;;;;5006210;28;20568;-87
2024/02/03 01:58:10;;;;;;;11.35;6.10;;;5.80;99.90;;;;;;5005083;28;20485;-86
2024/02/03 02:00:36;;;;;;;11.63;6.75;;;5.80;99.90;;;;;;4988308;28;20029;-86
2024/02/03 02:03:02;;;;;;;9.73;7.10;;;5.80;99.90;;;;;;4972533;28;20491;-86
2024/02/03 02:05:30;;;;;;;9.52;6.75;;;5.80;99.90;;;;;;5007610;28;20044;-86
2024/02/03 02:07:56;;;;;;;13.52;7.85;;;5.80;99.90;;;;;;4974053;28;20042;-85
2024/02/03 02:10:22;;;;;;;11.10;6.80;;;5.90;99.90;;;;;;4992762;28;20029;-86
2024/02/03 02:12:48;;;;;;;13.02;7.80;;;5.80;99.90;;;;;;5009883;28;20102;-87
2024/02/03 02:15:14;;;;;;;10.35;6.60;;;5.80;99.90;;;;;;5009110;28;20049;-86
2024/02/03 02:17:41;;;;;;;12.10;7.40;;;5.80;99.90;;;;;;5008283;28;20025;-86
2024/02/03 02:20:08;;;;;;;11.25;6.47;;;5.80;99.90;;;;;;5010510;28;20487;-86
2024/02/03 02:22:35;;;;;;;10.82;7.18;;;5.80;99.90;;;;;;5008707;28;20032;-86
2024/02/03 02:25:03;;;;;;;9.90;7.00;;;5.80;99.90;;;;;;4976187;28;20108;-87
2024/02/03 02:27:29;;;;;;;10.77;6.65;;;5.70;99.90;;;;;;4988727;28;20080;-86
2024/02/03 02:29:55;;;;;;;9.35;6.60;;;5.80;99.90;;;;;;4988681;28;20035;-86
2024/02/03 02:32:21;;;;;;;14.23;7.70;;;5.80;99.90;;;;;;4974670;28;20042;-86
2024/02/03 02:34:47;;;;;;;14.63;7.60;;;5.80;99.90;;;;;;5009857;28;20084;-87
2024/02/03 02:37:13;;;;;;;12.27;7.20;;;5.80;99.90;;;;;;5009209;28;20084;-86
2024/02/03 02:39:40;;;;;;;10.43;6.93;;;5.80;99.90;;;;;;5001364;28;20030;-87
2024/02/03 02:42:06;;;;;;;8.43;6.20;;;5.80;99.90;;;;;;5001781;28;20043;-86
2024/02/03 02:44:33;;;;;;;10.10;7.10;;;5.80;99.90;;;;;;5001756;28;20027;-86
2024/02/03 02:46:59;;;;;;;10.20;6.78;;;5.80;99.90;;;;;;5005568;28;20086;-86
2024/02/03 02:49:24;;;;;;;12.35;7.43;;;5.80;99.90;;;;;;5006676;28;20437;-86
2024/02/03 02:51:50;;;;;;;10.35;6.75;;;5.80;99.90;;;;;;4997098;28;20479;-86
2024/02/03 02:54:16;;;;;;;11.88;7.57;;;5.70;99.90;;;;;;5005712;28;20108;-86
2024/02/03 02:56:42;;;;;;;12.70;8.02;;;5.80;99.90;;;;;;5006943;28;20125;-86
2024/02/03 02:59:08;;;;;;;11.85;7.40;;;5.80;99.90;;;;;;5000520;28;20044;-86
2024/02/03 03:01:33;;;;;;;14.93;7.00;;;5.80;99.90;;;;;;5006468;28;20030;-86
2024/02/03 03:03:59;;;;;;;9.85;6.07;;;5.80;99.90;;;;;;5008123;28;20573;-85
2024/02/03 03:06:25;;;;;;;10.13;7.03;;;5.80;99.90;;;;;;4989464;28;20164;-86
2024/02/03 03:08:51;;;;;;;9.30;5.88;;;5.80;99.90;;;;;;5009289;28;20033;-85
2024/02/03 03:11:17;;;;;;;11.30;6.55;;;5.80;99.90;;;;;;4988810;28;20414;-86
2024/02/03 03:13:43;;;;;;;9.65;5.90;;;5.80;99.90;;;;;;4976637;28;20137;-87
2024/02/03 03:16:09;;;;;;;12.45;7.38;;;5.80;99.90;;;;;;4990887;28;20034;-86
2024/02/03 03:18:38;;;;;;;12.60;7.55;;;5.80;99.90;;;;;;5004913;28;20419;-86
2024/02/03 03:21:04;;;;;;;12.32;7.45;;;5.80;99.90;;;;;;4999285;28;20038;-86
2024/02/03 03:23:30;;;;;;;11.98;7.10;;;5.70;99.90;;;;;;5006089;28;20172;-86
2024/02/03 03:25:56;;;;;;;11.48;7.45;;;5.70;99.90;;;;;;5004640;28;20034;-85
2024/02/03 03:28:22;;;;;;;13.68;7.82;;;5.80;99.90;;;;;;5008951;28;20060;-86
2024/02/03 03:30:48;;;;;;;10.80;7.03;;;5.70;99.90;;;;;;5007788;28;20112;-86
2024/02/03 03:33:14;;;;;;;10.90;7.85;;;5.80;99.90;;;;;;5005600;28;20084;-86
2024/02/03 03:35:40;;;;;;;10.60;6.95;;;5.70;99.90;;;;;;5007444;28;20025;-86
2024/02/03 03:38:06;;;;;;;12.10;7.82;;;5.80;99.90;;;;;;5004670;28;20053;-86
2024/02/03 03:40:35;;;;;;;12.85;7.85;;;5.80;99.90;;;;;;5007063;28;20080;-86
2024/02/03 03:43:01;;;;;;;10.73;7.18;;;5.80;99.90;;;;;;4983852;28;20038;-86
2024/02/03 03:45:27;;;;;;;9.85;6.97;;;5.70;99.90;;;;;;4964619;28;20030;-86
2024/02/03 03:47:53;;;;;;;10.75;6.40;;;5.70;99.90;;;;;;4997928;28;20137;-86
2024/02/03 03:50:19;;;;;;;10.02;7.15;;;5.80;99.90;;;;;;4990771;28;20045;-87
2024/02/03 03:52:44;;;;;;;10.35;6.95;;;5.80;99.90;;;;;;5008613;28;20474;-86
2024/02/03 03:55:11;;;;;;;13.25;7.13;;;5.80;99.90;;;;;;4990289;28;20470;-87
2024/02/03 03:57:36;;;;;;;10.30;6.55;;;5.80;99.90;;;;;;5012644;28;20552;-87
2024/02/03 04:00:09;;;;;;;11.48;6.28;;;5.80;99.90;;;;;;5004113;28;20129;-86
2024/02/03 04:02:38;;;;;;;9.30;6.13;;;5.80;99.90;;;;;;5006732;28;20030;-87
2024/02/03 04:05:04;;;;;;;8.02;5.43;;;5.80;99.90;;;;;;4979446;28;20540;-86
2024/02/03 04:07:30;;;;;;;10.63;6.00;;;5.80;99.90;;;;;;5010074;28;20084;-87
2024/02/03 04:09:56;;;;;;;10.43;6.68;;;5.70;99.90;;;;;;5011966;28;20069;-86
2024/02/03 04:12:22;;;;;;;10.57;6.15;;;5.70;99.90;;;;;;5010582;28;20095;-86
2024/02/03 04:14:48;;;;;;;8.68;5.57;;;5.70;99.90;;;;;;4979015;28;20026;-86
2024/02/03 04:17:15;;;;;;;9.77;5.28;;;5.70;99.90;;;;;;5011770;28;20461;-87
2024/02/03 04:19:41;;;;;;;7.38;5.10;;;5.70;99.90;;;;;;4994878;28;20040;-87
2024/02/03 04:22:08;;;;;;;9.52;5.93;;;5.70;99.90;;;;;;5007733;28;20100;-87
2024/02/03 04:24:34;;;;;;;10.07;5.93;;;5.70;99.90;;;;;;5010309;28;20034;-87
2024/02/03 04:27:00;;;;;;;8.73;5.55;;;5.70;99.90;;;;;;5011130;28;20133;-87
2024/02/03 04:29:26;;;;;;;11.05;5.60;;;5.70;99.90;;;;;;5017991;28;20064;-86
2024/02/03 04:31:52;;;;;;;7.35;5.25;;;5.70;99.90;;;;;;5011745;28;20502;-86
2024/02/03 04:34:18;;;;;;;9.57;5.60;;;5.70;99.90;;;;;;4986287;28;20027;-86
2024/02/03 04:36:44;;;;;;;9.77;6.00;;;5.70;99.90;;;;;;5009730;28;20022;-88
2024/02/03 04:39:31;;;;;;;9.73;5.82;;;5.70;99.90;;;;;;4996866;28;20046;-86
2024/02/03 04:41:57;;;;;;;9.02;5.20;;;5.70;99.90;;;;;;4992606;28;20045;-87
2024/02/03 04:44:22;;;;;;;11.18;5.95;;;5.60;99.90;;;;;;4993763;28;20038;-86
2024/02/03 04:46:48;;;;;;;8.77;5.68;;;5.60;99.90;;;;;;5010098;28;20030;-86
2024/02/03 04:49:14;;;;;;;10.93;6.07;;;5.70;99.90;;;;;;5010724;28;20041;-86
2024/02/03 04:51:40;;;;;;;8.77;5.32;;;5.60;99.90;;;;;;5011026;28;20744;-87
2024/02/03 04:54:06;;;;;;;11.90;6.10;;;5.70;99.90;;;;;;5011031;28;20026;-86
2024/02/03 04:56:32;;;;;;;9.05;5.50;;;5.60;99.90;;;;;;5009982;28;20409;-86
2024/02/03 04:59:01;;;;;;;10.88;5.00;;;5.60;99.90;;;;;;5006045;28;20050;-86
2024/02/03 05:01:27;;;;;;;6.78;4.43;;;5.60;99.90;;;;;;5009146;28;20080;-86
2024/02/03 05:03:52;;;;;;;9.32;5.80;;;5.60;99.90;;;;;;4991340;28;20022;-85
2024/02/03 05:06:22;;;;;;;9.70;5.75;;;5.60;99.90;;;;;;5009202;28;20659;-86
2024/02/03 05:09:00;;;;;;;7.70;4.72;;;5.60;99.90;;;;;;5007838;28;20033;-86
2024/02/03 05:11:26;;;;;;;6.45;4.28;;;5.60;99.90;;;;;;5008012;28;20036;-86
2024/02/03 05:13:52;;;;;;;8.32;4.53;;;5.60;99.90;;;;;;5011191;28;20018;-86
2024/02/03 05:16:17;;;;;;;6.75;4.40;;;5.60;99.90;;;;;;5008995;28;20026;-86
2024/02/03 05:18:43;;;;;;;7.20;4.63;;;5.60;99.90;;;;;;4968756;28;20038;-86
2024/02/03 05:21:09;;;;;;;8.88;5.10;;;5.60;99.90;;;;;;4981145;28;20527;-86
2024/02/03 05:23:35;;;;;;;7.75;5.25;;;5.50;99.90;;;;;;5006946;28;20046;-86
2024/02/03 05:26:01;;;;;;;8.13;4.45;;;5.50;99.90;;;;;;4988436;28;20130;-86
2024/02/03 05:28:27;;;;;;;6.68;4.35;;;5.60;99.90;;;;;;5010554;28;20033;-85
2024/02/03 05:30:53;;;;;;;8.80;4.55;;;5.60;99.90;;;;;;5004123;28;20113;-87
2024/02/03 05:33:19;;;;;;;7.35;4.60;;;5.50;99.90;;;;;;5010014;28;20045;-87
2024/02/03 05:35:45;;;;;;;7.18;4.68;;;5.60;99.90;;;;;;5010290;28;20022;-86
2024/02/03 05:38:11;;;;;;;7.15;4.78;;;5.60;99.90;;;;;;4994204;28;20048;-86
2024/02/03 05:40:36;;;;;;;7.05;4.85;;;5.60;99.90;;;;;;5011389;28;20080;-86
2024/02/03 05:43:02;;;;;;;8.43;4.72;;;5.60;99.90;;;;;;5008797;28;20096;-86
2024/02/03 05:45:28;;;;;;;7.85;4.68;;;5.60;99.90;;;;;;5007506;28;20042;-87
2024/02/03 05:47:54;;;;;;;9.43;4.25;;;5.60;99.90;;;;;;4987352;28;20035;-86
2024/02/03 05:50:19;;;;;;;7.88;5.10;;;5.60;99.90;;;;;;5003048;28;20111;-87
2024/02/03 05:52:45;;;;;;;7.95;4.72;;;5.60;99.90;;;;;;5009789;28;20021;-86
2024/02/03 05:55:11;;;;;;;6.65;4.63;;;5.60;99.90;;;;;;5010031;28;20041;-86
2024/02/03 05:57:49;;;;;;;6.90;4.18;;;5.60;99.90;;;;;;5010058;28;20102;-86
2024/02/03 06:00:16;;;;;;;6.35;3.72;;;5.60;99.90;;;;;;4986724;28;20119;-87
2024/02/03 06:02:42;;;;;;;6.68;4.00;;;5.60;99.90;;;;;;4992752;28;20022;-86
2024/02/03 06:05:08;;;;;;;5.22;3.72;;;5.60;99.90;;;;;;5005950;28;20045;-86
2024/02/03 06:07:33;;;;;;;4.53;3.30;;;5.60;99.90;;;;;;4992945;28;20497;-85
2024/02/03 06:10:00;;;;;;;4.72;3.22;;;5.60;99.90;;;;;;4989229;28;20038;-87
2024/02/03 06:12:25;;;;;;;5.57;3.38;;;5.60;99.90;;;;;;4993166;28;20040;-86
2024/02/03 06:14:51;;;;;;;3.90;2.83;;;5.60;99.90;;;;;;5009771;28;20025;-86
2024/02/03 06:17:17;;;;;;;4.45;2.83;;;5.60;99.90;;;;;;4973097;28;20037;-87
2024/02/03 06:19:43;;;;;;;4.57;2.53;;;5.60;99.90;;;;;;4983483;28;20417;-87
2024/02/03 06:22:09;;;;;;;4.88;3.20;;;5.60;99.90;;;;;;5003419;28;20044;-86
2024/02/03 06:24:35;;;;;;;4.30;2.95;;;5.60;99.90;;;;;;4989652;28;20394;-86
2024/02/03 06:27:00;;;;;;;5.03;2.70;;;5.60;99.90;;;;;;5008724;28;20029;-87
2024/02/03 06:29:26;;;;;;;4.20;3.17;;;5.60;99.90;;;;;;5010346;28;20037;-86
2024/02/03 06:31:52;;;;;;;5.25;3.00;;;5.60;99.90;;;;;;5005474;28;20041;-86
2024/02/03 06:34:18;;;;;;;3.75;2.70;;;5.60;99.90;;;;;;5006047;28;20032;-86
2024/02/03 06:36:44;;;;;;;3.17;2.55;;;5.60;99.90;;;;;;4989261;28;20053;-86
2024/02/03 06:39:10;;;;;;;5.45;3.33;;;5.60;99.90;;;;;;4982605;28;20344;-86
2024/02/03 06:41:35;;;;;;;3.40;2.50;;;5.60;99.90;;;;;;5008843;28;20033;-86
2024/02/03 06:44:01;;;;;;;4.72;3.20;;;5.60;99.90;;;;;;5007742;28;20030;-88
2024/02/03 06:46:27;;;;;;;4.35;2.45;;;5.60;99.90;;;;;;5005370;28;20479;-87
2024/02/03 06:48:53;;;;;;;3.00;2.47;;;5.60;99.90;;;;;;4990782;28;20038;-86
2024/02/03 06:51:19;;;;;;;3.33;2.40;;;5.60;99.90;;;;;;5006964;28;20105;-86
2024/02/03 06:53:44;;;;;;;4.25;3.22;;;5.60;99.90;;;;;;4993092;28;20568;-86
2024/02/03 06:56:10;;;;;;;3.50;2.63;;;5.60;99.90;;;;;;5007108;28;20034;-85
2024/02/03 06:58:36;;;;;;;3.47;2.75;;;5.60;99.90;;;;;;5003720;28;20038;-86
2024/02/03 07:01:02;;;;;;;2.65;1.98;;;5.60;99.90;;;;;;5001223;28;20026;-86
2024/02/03 07:03:28;;;;;;;2.83;2.10;;;5.60;99.90;;;;;;5008678;28;20042;-86
2024/02/03 07:05:54;;;;;;;2.17;1.98;;;5.60;99.90;;;;;;5007996;28;20038;-86
2024/02/03 07:08:19;;;;;;;3.03;2.30;;;5.60;99.90;;;;;;4976270;28;20045;-87
2024/02/03 07:10:45;;;;;;;4.32;2.50;;;5.60;99.90;;;;;;5006048;28;20033;-86
2024/02/03 07:13:15;;;;;;;3.03;2.10;;;5.60;99.90;;;;;;5009693;28;20026;-86
2024/02/03 07:15:41;;;;;;;2.15;1.95;;;5.70;99.90;;;;;;5007802;28;20125;-86
2024/02/03 07:18:06;;;;;;;2.10;1.80;;;5.70;99.90;;;;;;5010515;28;20088;-86
2024/02/03 07:20:32;;;;;;;1.75;1.60;;;5.70;99.90;;;;;;4990944;28;20022;-86
2024/02/03 07:22:58;;;;;;;2.33;1.98;;;5.70;99.90;;;;;;5002864;28;20440;-86
2024/02/03 07:25:24;;;;;;;2.17;1.88;;;5.70;99.90;;;;;;4975131;28;20541;-86
2024/02/03 07:27:50;;;;;;;2.45;1.70;;;5.70;99.90;;;;;;5002271;28;20041;-86
2024/02/03 07:30:15;;;;;;;2.40;1.90;;;5.70;99.90;;;;;;4976212;28;20053;-87
2024/02/03 07:32:42;;;;;;;3.40;2.10;;;5.70;99.90;;;;;;4996289;28;20026;-86
2024/02/03 07:35:10;;;;;;;1.92;1.73;;;5.70;99.90;;;;;;5012047;28;20109;-87
2024/02/03 07:37:35;;;;;;;2.22;1.77;;;5.70;99.90;;;;;;5006549;28;20026;-86
2024/02/03 07:40:01;;;;;;;2.42;1.83;;;5.70;99.90;;;;;;5008275;28;20072;-86
2024/02/03 07:42:27;;;;;;;4.22;2.30;;;5.70;99.90;;;;;;4995903;28;20041;-87
2024/02/03 07:44:53;;;;;;;3.78;2.03;;;5.70;99.90;;;;;;4994548;28;20042;-86
2024/02/03 07:47:19;;;;;;;2.90;1.98;;;5.80;99.90;;;;;;5007168;28;20065;-86
2024/02/03 07:49:44;;;;;;;2.30;2.03;;;5.80;99.90;;;;;;4996556;28;20037;-87
2024/02/03 07:52:10;;;;;;;2.70;1.90;;;5.80;99.90;;;;;;4996294;28;20034;-86
2024/02/03 07:54:36;;;;;;;1.80;1.58;;;5.80;99.90;;;;;;5006311;28;20026;-87
2024/02/03 07:57:02;;;;;;;2.03;1.52;;;5.80;99.90;;;;;;5008252;28;20117;-87
2024/02/03 07:59:28;;;;;;;2.67;2.10;;;5.90;99.90;;;;;;4974403;28;20093;-86
2024/02/03 08:01:53;;;;;;;2.42;1.88;;;5.80;99.90;;;;;;5009096;28;20113;-86
2024/02/03 08:04:19;;;;;;;4.50;1.85;;;5.90;99.90;;;;;;5005614;28;20026;-86
2024/02/03 08:06:45;;;;;;;1.45;1.35;;;5.90;99.90;;;;;;5010093;28;20030;-87
2024/02/03 08:09:11;;;;;;;2.20;1.55;;;6.00;99.90;;;;;;5011995;28;20034;-87
2024/02/03 08:11:36;;;;;;;2.30;1.60;;;6.00;99.90;;;;;;4993303;28;20034;-85
2024/02/03 08:14:02;;;;;;;2.58;1.35;;;5.90;99.90;;;;;;4986020;28;20031;-86
2024/02/03 08:16:28;;;;;;;1.35;1.25;;;5.90;99.90;;;;;;4994219;28;20034;-86
2024/02/03 08:18:54;;;;;;;2.30;1.38;;;6.00;99.90;;;;;;5011180;28;20049;-86
2024/02/03 08:21:20;;;;;;;2.33;1.30;;;6.00;99.90;;;;;;5010860;28;20677;-86
2024/02/03 08:23:46;;;;;;;1.75;1.48;;;6.00;99.90;;;;;;5009773;28;20123;-85
2024/02/03 08:26:12;;;;;;;2.55;1.58;;;6.00;99.90;;;;;;4979572;28;20030;-86
2024/02/03 08:28:38;;;;;;;1.30;1.08;;;6.00;99.90;;;;;;4977345;28;20049;-87
2024/02/03 08:31:04;;;;;;;1.67;1.50;;;6.10;99.90;;;;;;5011661;28;20030;-87
2024/02/03 08:33:31;;;;;;;2.55;1.50;;;6.00;99.90;;;;;;5011752;28;20629;-87
2024/02/03 08:35:57;;;;;;;2.10;1.30;;;6.10;99.90;;;;;;4991486;28;20509;-87
2024/02/03 08:38:23;;;;;;;1.23;1.08;;;6.20;99.90;;;;;;5007822;28;20030;-87
2024/02/03 08:40:50;;;;;;;2.38;1.13;;;6.20;99.90;;;;;;5000322;28;20030;-86
2024/02/03 08:43:16;;;;;;;1.25;1.05;;;6.20;99.90;;;;;;5011814;28;20486;-86
2024/02/03 08:45:42;;;;;;;1.45;1.33;;;6.20;99.90;;;;;;5009793;28;20113;-87
2024/02/03 08:48:08;;;;;;;3.30;1.40;;;6.20;99.90;;;;;;5012013;28;20034;-87
2024/02/03 08:50:34;;;;;;;1.27;1.00;;;6.20;99.90;;;;;;5007677;28;20029;-86
2024/02/03 08:53:01;;;;;;;1.60;1.10;;;6.20;99.90;;;;;;5011451;28;20029;-87
2024/02/03 08:55:28;;;;;;;1.70;1.00;;;6.20;99.90;;;;;;4985944;28;20484;-86
2024/02/03 08:57:54;;;;;;;2.30;1.40;;;6.20;99.90;;;;;;5009390;28;20038;-86
2024/02/03 09:00:20;;;;;;;2.28;1.33;;;6.20;99.90;;;;;;5008492;28;20156;-86
2024/02/03 09:02:45;;;;;;;1.30;1.20;;;6.20;99.90;;;;;;4998874;28;20036;-86
2024/02/03 09:05:11;;;;;;;1.50;0.95;;;6.20;99.90;;;;;;4987251;28;20035;-86
2024/02/03 09:07:37;;;;;;;1.90;1.05;;;6.20;99.90;;;;;;4978210;28;20057;-86
2024/02/03 09:10:03;;;;;;;1.50;1.00;;;6.30;99.90;;;;;;5007151;28;20069;-87
2024/02/03 09:12:29;;;;;;;2.55;1.10;;;6.30;99.90;;;;;;5011417;28;20022;-87
2024/02/03 09:14:55;;;;;;;1.20;1.10;;;6.30;99.90;;;;;;5010187;28;20635;-86
2024/02/03 09:17:21;;;;;;;1.63;0.90;;;6.30;99.90;;;;;;5012839;28;20022;-86
2024/02/03 09:19:47;;;;;;;0.77;0.77;;;6.30;99.90;;;;;;5015305;28;20037;-86
2024/02/03 09:22:14;;;;;;;2.13;0.80;;;6.30;99.90;;;;;;4986030;28;20095;-88
2024/02/03 09:24:40;;;;;;;1.95;1.10;;;6.30;99.90;;;;;;4978355;28;20042;-87
2024/02/03 09:27:07;;;;;;;2.50;1.20;;;6.40;99.90;;;;;;5009032;28;20026;-87
2024/02/03 09:29:33;;;;;;;0.80;0.77;;;6.30;99.90;;;;;;5011755;28;20022;-87
2024/02/03 09:31:59;;;;;;;1.52;0.90;;;6.30;99.90;;;;;;4994440;28;20497;-88
2024/02/03 09:34:26;;;;;;;1.60;0.85;;;6.40;99.90;;;;;;5006835;28;20022;-87
2024/02/03 09:36:52;;;;;;;2.42;0.88;;;6.40;99.90;;;;;;4991239;28;20403;-87
2024/02/03 09:39:18;;;;;;;1.65;1.00;;;6.40;99.90;;;;;;5005774;28;20037;-87
2024/02/03 09:41:44;;;;;;;1.33;1.23;;;6.30;99.90;;;;;;4994572;28;20053;-86
2024/02/03 09:44:10;;;;;;;1.33;1.00;;;6.40;99.90;;;;;;4982892;28;20123;-87
2024/02/03 09:46:35;;;;;;;1.15;1.00;;;6.40;99.90;;;;;;5002507;28;20026;-88
2024/02/03 09:49:02;;;;;;;1.45;1.10;;;6.40;99.90;;;;;;5004748;28;20414;-87
2024/02/03 09:51:31;;;;;;;2.50;1.17;;;6.40;99.90;;;;;;5010899;28;20086;-88
2024/02/03 09:53:58;;;;;;;1.92;1.00;;;6.40;99.90;;;;;;5006117;28;20042;-88
2024/02/03 09:56:23;;;;;;;3.13;1.25;;;6.40;99.90;;;;;;4987731;28;20151;-88
2024/02/03 09:58:50;;;;;;;1.60;0.90;;;6.40;99.90;;;;;;4999097;28;20077;-88
2024/02/03 10:01:16;;;;;;;1.85;1.00;;;6.40;99.90;;;;;;4985211;28;20117;-86
2024/02/03 10:04:03;;;;;;;2.13;1.20;;;6.40;99.90;;;;;;4999703;28;20562;-86
2024/02/03 10:06:29;;;;;;;3.00;1.20;;;6.40;99.90;;;;;;5015419;28;20552;-85
2024/02/03 10:08:55;;;;;;;2.70;1.05;;;6.50;99.90;;;;;;5007002;28;20076;-86
2024/02/03 10:11:21;;;;;;;1.55;1.00;;;6.50;99.90;;;;;;5008820;28;20030;-85
2024/02/03 10:13:49;;;;;;;1.20;1.10;;;6.60;99.90;;;;;;5001734;28;20077;-85
2024/02/03 10:16:14;;;;;;;1.23;1.10;;;6.70;99.90;;;;;;5002296;28;20045;-85
2024/02/03 10:18:40;;;;;;;2.58;0.90;;;6.80;99.90;;;;;;4999494;28;20498;-86
2024/02/03 10:21:06;;;;;;;1.23;0.82;;;6.80;99.90;;;;;;5005931;28;20038;-85
2024/02/03 10:23:32;;;;;;;1.35;0.70;;;6.90;99.90;;;;;;4991383;28;20026;-86
2024/02/03 10:25:59;;;;;;;2.40;0.80;;;7.00;99.90;;;;;;4990745;28;20042;-85
2024/02/03 10:28:25;;;;;;;1.00;0.90;;;7.20;99.90;;;;;;5009665;28;20034;-86
2024/02/03 10:30:55;;;;;;;1.67;0.60;;;7.20;99.90;;;;;;5006173;28;20022;-86
2024/02/03 10:33:21;;;;;;;1.13;0.80;;;7.30;99.90;;;;;;5000994;28;20065;-86
2024/02/03 10:35:47;;;;;;;0.88;0.70;;;7.50;99.90;;;;;;5001212;28;20022;-85
2024/02/03 10:38:13;;;;;;;1.45;0.77;;;7.60;99.90;;;;;;5002472;28;20030;-85
2024/02/03 10:40:39;;;;;;;0.90;0.70;;;7.60;99.90;;;;;;4980332;28;20149;-86
2024/02/03 10:43:29;;;;;;;1.10;0.88;;;7.70;99.90;;;;;;5004870;28;20030;-85
2024/02/03 10:46:00;;;;;;;1.02;0.80;;;7.80;99.90;;;;;;5002964;28;20033;-86
2024/02/03 10:48:30;;;;;;;0.75;0.50;;;7.90;99.90;;;;;;4995819;28;20034;-86
2024/02/03 10:51:01;;;;;;;0.80;0.70;;;8.00;99.90;;;;;;5006408;28;20092;-85
2024/02/03 10:53:34;;;;;;;1.45;0.60;;;8.10;99.90;;;;;;5005990;28;20034;-87
2024/02/03 10:56:04;;;;;;;1.95;0.70;;;8.10;99.90;;;;;;5007722;28;20088;-86
2024/02/03 10:58:31;;;;;;;0.60;0.60;;;8.30;99.90;;;;;;4991711;28;20642;-86
2024/02/03 11:00:59;;;;;;;0.98;0.70;;;8.40;99.90;;;;;;4982065;28;20046;-87
2024/02/03 11:03:35;;;;;;;1.15;0.70;;;8.40;99.90;;;;;;4986928;28;20083;-85
2024/02/03 11:06:05;;;;;;;1.40;0.50;;;8.40;99.90;;;;;;5002493;28;20035;-85
2024/02/03 11:08:32;;;;;;;1.70;0.70;;;8.30;99.90;;;;;;5010821;28;20088;-86
2024/02/03 11:10:58;;;;;;;1.20;1.00;;;8.20;99.90;;;;;;5004441;28;20080;-87
2024/02/03 11:13:27;;;;;;;0.60;0.60;;;8.20;99.90;;;;;;4974688;28;20495;-85
2024/02/03 11:16:00;;;;;;;1.23;0.90;;;8.00;99.90;;;;;;4991118;28;20026;-87
2024/02/03 11:18:27;;;;;;;1.08;0.80;;;8.00;99.90;;;;;;4993516;28;20041;-85
2024/02/03 11:21:05;;;;;;;2.88;0.88;;;7.80;99.90;;;;;;4980315;28;20095;-86
2024/02/03 11:23:31;;;;;;;2.83;1.40;;;7.80;99.90;;;;;;4975960;28;20034;-85
2024/02/03 11:25:59;;;;;;;0.90;0.70;;;7.70;99.90;;;;;;5011264;28;20081;-86
2024/02/03 11:28:25;;;;;;;0.85;0.80;;;7.60;99.90;;;;;;5005081;28;20034;-86
2024/02/03 11:31:09;;;;;;;1.00;0.88;;;7.70;99.90;;;;;;4990427;28;20029;-86
2024/02/03 11:33:48;;;;;;;2.92;0.80;;;7.50;99.90;;;;;;5011148;28;20026;-86
2024/02/03 11:36:14;;;;;;;0.63;0.50;;;7.40;99.90;;;;;;4992104;28;20426;-87
2024/02/03 11:38:49;;;;;;;0.98;0.90;;;7.40;99.90;;;;;;5005035;28;20057;-85
2024/02/03 11:41:16;;;;;;;1.25;1.10;;;7.30;99.90;;;;;;5009789;28;20125;-86
2024/02/03 11:43:47;;;;;;;1.40;1.17;;;7.40;99.90;;;;;;4988501;28;20037;-85
2024/02/03 11:46:13;;;;;;;3.42;1.23;;;7.40;99.90;;;;;;5007134;28;20038;-86
2024/02/03 11:48:39;;;;;;;1.15;1.08;;;7.40;99.90;;;;;;4995280;28;20041;-86
2024/02/03 11:51:08;;;;;;;2.58;1.08;;;7.20;99.90;;;;;;4993893;28;20030;-85
2024/02/03 11:53:34;;;;;;;0.88;0.88;;;7.20;99.90;;;;;;5012756;28;20030;-86
2024/02/03 11:56:00;;;;;;;2.05;1.00;;;7.20;99.90;;;;;;4989740;28;20772;-86
2024/02/03 11:58:26;;;;;;;1.08;0.98;;;7.30;99.90;;;;;;4996280;28;20122;-84
2024/02/03 12:01:09;;;;;;;0.98;0.90;;;7.20;99.90;;;;;;5012516;28;20077;-86
2024/02/03 12:03:36;;;;;;;1.23;0.90;;;7.30;99.90;;;;;;5010968;28;20482;-87
2024/02/03 12:06:05;;;;;;;1.08;0.98;;;7.30;99.90;;;;;;5010963;28;20160;-86
2024/02/03 12:08:32;;;;;;;1.50;1.10;;;7.20;99.90;;;;;;4995642;28;20021;-86
2024/02/03 12:10:58;;;;;;;1.50;1.08;;;7.20;99.90;;;;;;5005564;28;20026;-86
2024/02/03 12:13:24;;;;;;;1.27;1.17;;;7.20;99.90;;;;;;5011892;28;20141;-87
2024/02/03 12:15:54;;;;;;;1.17;1.02;;;7.30;99.90;;;;;;5010234;28;20030;-87
2024/02/03 12:18:20;;;;;;;1.17;0.90;;;7.20;99.90;;;;;;5013108;28;20033;-86
2024/02/03 12:20:46;;;;;;;0.80;0.80;;;7.30;99.90;;;;;;5011778;28;20026;-86
2024/02/03 12:23:34;;;;;;;1.30;0.80;;;7.20;99.90;;;;;;4999194;28;20049;-86
2024/02/03 12:26:00;;;;;;;1.00;0.90;;;7.30;99.90;;;;;;5007599;28;20401;-86
2024/02/03 12:28:26;;;;;;;1.20;1.10;;;7.30;99.90;;;;;;4990994;28;20038;-85
2024/02/03 12:30:56;;;;;;;1.73;1.05;;;7.20;99.90;;;;;;4993264;28;20137;-86
2024/02/03 12:33:22;;;;;;;1.10;1.00;;;7.30;99.90;;;;;;4987089;28;20030;-85
2024/02/03 12:35:48;;;;;;;1.35;1.10;;;7.30;99.90;;;;;;4991015;28;20029;-86
2024/02/03 12:38:14;;;;;;;1.83;1.05;;;7.30;99.90;;;;;;4991323;28;20049;-86
2024/02/03 12:40:39;;;;;;;1.30;1.20;;;7.30;99.90;;;;;;5013019;28;20030;-86
2024/02/03 12:43:05;;;;;;;1.45;0.93;;;7.30;99.90;;;;;;5011431;28;20091;-87
2024/02/03 12:45:31;;;;;;;1.13;1.00;;;7.30;99.90;;;;;;5010874;28;20058;-86
2024/02/03 12:47:57;;;;;;;1.33;1.00;;;7.40;99.90;;;;;;5009312;28;20022;-86
2024/02/03 12:50:22;;;;;;;1.70;1.13;;;7.40;99.90;;;;;;4993185;28;20048;-85
2024/02/03 12:52:48;;;;;;;1.58;1.38;;;7.40;99.90;;;;;;4999976;28;20506;-86